sensor_id;sensor_type;location;lat;lon;timestamp;P1;durP1;ratioP1;P2;durP2;ratioP2
59233;SDS011;60776;51.702;7.462;2023-05-21T21:52:26;6.25;;;4.80;;
59233;SDS011;60776;51.702;7.462;2023-05-21T21:54:52;4.88;;;4.30;;
59233;SDS011;60776;51.702;7.462;2023-05-21T21:57:21;4.82;;;4.40;;
59233;SDS011;60776;51.702;7.462;2023-05-21T21:59:48;5.22;;;4.72;;
59233;SDS011;60776;51.702;7.462;2023-05-21T22:02:14;5.28;;;4.78;;
59233;SDS011;60776;51.702;7.462;2023-05-21T22:04:42;5.05;;;4.65;;
59233;SDS011;60776;51.702;7.462;2023-05-21T22:07:09;4.95;;;4.55;;
59233;SDS011;60776;51.702;7.462;2023-05-21T22:09:43;5.80;;;5.20;;
59233;SDS011;60776;51.702;7.462;2023-05-21T22:12:10;4.50;;;4.10;;
59233;SDS011;60776;51.702;7.462;2023-05-21T22:14:38;6.25;;;4.57;;
59233;SDS011;60776;51.702;7.462;2023-05-21T22:17:04;5.40;;;4.47;;
59233;SDS011;60776;51.702;7.462;2023-05-21T22:19:32;4.68;;;3.97;;
59233;SDS011;60776;51.702;7.462;2023-05-21T22:22:00;5.07;;;4.50;;
59233;SDS011;60776;51.702;7.462;2023-05-21T22:24:34;4.93;;;4.53;;
59233;SDS011;60776;51.702;7.462;2023-05-21T22:26:59;4.93;;;4.45;;
59233;SDS011;60776;51.702;7.462;2023-05-21T22:29:25;4.90;;;4.50;;
59233;SDS011;60776;51.702;7.462;2023-05-21T22:31:51;4.40;;;4.10;;
59233;SDS011;60776;51.702;7.462;2023-05-21T22:34:17;4.00;;;3.70;;
59233;SDS011;60776;51.702;7.462;2023-05-21T22:36:42;4.50;;;4.10;;
59233;SDS011;60776;51.702;7.462;2023-05-21T22:39:08;4.68;;;4.28;;
59233;SDS011;60776;51.702;7.462;2023-05-21T22:41:34;4.47;;;4.10;;
59233;SDS011;60776;51.702;7.462;2023-05-21T22:44:00;4.70;;;4.30;;
59233;SDS011;60776;51.702;7.462;2023-05-21T22:46:26;4.70;;;4.32;;
59233;SDS011;60776;51.702;7.462;2023-05-21T22:48:52;4.57;;;4.28;;
59233;SDS011;60776;51.702;7.462;2023-05-21T22:51:18;4.65;;;4.10;;
59233;SDS011;60776;51.702;7.462;2023-05-21T22:53:44;4.55;;;4.15;;
59233;SDS011;60776;51.702;7.462;2023-05-21T22:56:09;4.40;;;4.00;;
59233;SDS011;60776;51.702;7.462;2023-05-21T22:58:37;4.90;;;3.65;;
59233;SDS011;60776;51.702;7.462;2023-05-21T23:01:03;4.55;;;4.15;;
59233;SDS011;60776;51.702;7.462;2023-05-21T23:03:29;6.13;;;4.28;;
59233;SDS011;60776;51.702;7.462;2023-05-21T23:05:55;4.22;;;3.83;;
59233;SDS011;60776;51.702;7.462;2023-05-21T23:08:20;4.32;;;3.92;;
59233;SDS011;60776;51.702;7.462;2023-05-21T23:10:46;4.10;;;3.80;;
59233;SDS011;60776;51.702;7.462;2023-05-21T23:13:12;4.43;;;4.03;;
59233;SDS011;60776;51.702;7.462;2023-05-21T23:15:37;3.95;;;3.65;;
59233;SDS011;60776;51.702;7.462;2023-05-21T23:18:03;4.20;;;3.80;;
59233;SDS011;60776;51.702;7.462;2023-05-21T23:20:31;4.07;;;3.78;;
59233;SDS011;60776;51.702;7.462;2023-05-21T23:22:57;3.88;;;3.47;;
59233;SDS011;60776;51.702;7.462;2023-05-21T23:25:23;4.32;;;3.92;;
59233;SDS011;60776;51.702;7.462;2023-05-21T23:27:49;3.95;;;3.65;;
59233;SDS011;60776;51.702;7.462;2023-05-21T23:30:14;4.10;;;3.75;;
59233;SDS011;60776;51.702;7.462;2023-05-21T23:32:43;4.22;;;3.83;;
59233;SDS011;60776;51.702;7.462;2023-05-21T23:35:08;4.45;;;3.60;;
59233;SDS011;60776;51.702;7.462;2023-05-21T23:37:34;4.07;;;3.78;;
59233;SDS011;60776;51.702;7.462;2023-05-21T23:40:00;4.30;;;3.90;;
59233;SDS011;60776;51.702;7.462;2023-05-21T23:42:26;4.05;;;3.75;;
59233;SDS011;60776;51.702;7.462;2023-05-21T23:44:51;4.10;;;3.80;;
59233;SDS011;60776;51.702;7.462;2023-05-21T23:47:20;4.00;;;3.70;;
59233;SDS011;60776;51.702;7.462;2023-05-21T23:49:46;4.47;;;4.07;;
59233;SDS011;60776;51.702;7.462;2023-05-21T23:52:12;3.72;;;3.42;;
59233;SDS011;60776;51.702;7.462;2023-05-21T23:54:41;3.90;;;3.58;;
59233;SDS011;60776;51.702;7.462;2023-05-21T23:57:06;4.63;;;3.90;;
59233;SDS011;60776;51.702;7.462;2023-05-21T23:59:32;3.47;;;3.20;;
